sensor_id;sensor_type;location;lat;lon;timestamp;P1;durP1;ratioP1;P2;durP2;ratioP2
13687;SDS011;6916;51.504;7.416;2023-07-08T00:03:02;7.75;;;2.17;;
13687;SDS011;6916;51.504;7.416;2023-07-08T00:13:04;5.40;;;1.92;;
13687;SDS011;6916;51.504;7.416;2023-07-08T00:23:08;3.75;;;1.70;;
13687;SDS011;6916;51.504;7.416;2023-07-08T00:33:11;3.80;;;2.20;;
13687;SDS011;6916;51.504;7.416;2023-07-08T00:43:14;2.67;;;1.65;;
13687;SDS011;6916;51.504;7.416;2023-07-08T01:03:40;5.97;;;1.92;;
13687;SDS011;6916;51.504;7.416;2023-07-08T01:13:46;4.65;;;2.03;;
13687;SDS011;6916;51.504;7.416;2023-07-08T01:23:48;5.20;;;2.22;;
13687;SDS011;6916;51.504;7.416;2023-07-08T01:33:51;2.05;;;1.60;;
13687;SDS011;6916;51.504;7.416;2023-07-08T01:43:54;4.28;;;1.55;;
13687;SDS011;6916;51.504;7.416;2023-07-08T01:53:57;3.35;;;2.13;;
13687;SDS011;6916;51.504;7.416;2023-07-08T02:03:59;4.00;;;1.90;;
13687;SDS011;6916;51.504;7.416;2023-07-08T02:14:03;4.75;;;2.50;;
13687;SDS011;6916;51.504;7.416;2023-07-08T02:24:07;4.03;;;1.80;;
13687;SDS011;6916;51.504;7.416;2023-07-08T02:34:10;3.05;;;1.88;;
13687;SDS011;6916;51.504;7.416;2023-07-08T02:44:12;4.55;;;1.92;;
13687;SDS011;6916;51.504;7.416;2023-07-08T02:54:15;3.47;;;2.17;;
13687;SDS011;6916;51.504;7.416;2023-07-08T03:04:18;4.90;;;2.30;;
13687;SDS011;6916;51.504;7.416;2023-07-08T03:14:21;2.83;;;1.95;;
13687;SDS011;6916;51.504;7.416;2023-07-08T03:24:24;5.50;;;2.22;;
13687;SDS011;6916;51.504;7.416;2023-07-08T03:34:27;3.35;;;2.30;;
13687;SDS011;6916;51.504;7.416;2023-07-08T03:44:30;3.88;;;2.03;;
13687;SDS011;6916;51.504;7.416;2023-07-08T03:54:34;3.33;;;2.35;;
13687;SDS011;6916;51.504;7.416;2023-07-08T04:04:36;1.95;;;1.73;;
13687;SDS011;6916;51.504;7.416;2023-07-08T04:14:40;2.50;;;2.00;;
13687;SDS011;6916;51.504;7.416;2023-07-08T04:24:44;4.25;;;2.30;;
13687;SDS011;6916;51.504;7.416;2023-07-08T04:34:47;3.13;;;1.92;;
13687;SDS011;6916;51.504;7.416;2023-07-08T04:44:49;5.03;;;3.03;;
13687;SDS011;6916;51.504;7.416;2023-07-08T04:54:53;4.50;;;2.53;;
13687;SDS011;6916;51.504;7.416;2023-07-08T05:04:56;4.80;;;2.38;;
13687;SDS011;6916;51.504;7.416;2023-07-08T05:14:58;4.28;;;2.47;;
13687;SDS011;6916;51.504;7.416;2023-07-08T05:25:01;3.75;;;2.40;;
13687;SDS011;6916;51.504;7.416;2023-07-08T05:35:04;4.32;;;2.85;;
13687;SDS011;6916;51.504;7.416;2023-07-08T05:45:10;4.68;;;2.30;;
13687;SDS011;6916;51.504;7.416;2023-07-08T05:55:12;10.65;;;2.55;;
13687;SDS011;6916;51.504;7.416;2023-07-08T06:05:15;7.10;;;2.78;;
13687;SDS011;6916;51.504;7.416;2023-07-08T06:15:19;5.38;;;2.67;;
13687;SDS011;6916;51.504;7.416;2023-07-08T06:25:22;4.25;;;2.33;;
13687;SDS011;6916;51.504;7.416;2023-07-08T06:35:25;5.38;;;2.28;;
13687;SDS011;6916;51.504;7.416;2023-07-08T06:45:29;5.15;;;2.65;;
13687;SDS011;6916;51.504;7.416;2023-07-08T06:55:32;3.95;;;2.08;;
13687;SDS011;6916;51.504;7.416;2023-07-08T07:05:35;4.13;;;2.42;;
13687;SDS011;6916;51.504;7.416;2023-07-08T07:15:37;3.35;;;2.25;;
13687;SDS011;6916;51.504;7.416;2023-07-08T07:25:40;5.57;;;2.70;;
13687;SDS011;6916;51.504;7.416;2023-07-08T07:35:43;6.57;;;2.83;;
13687;SDS011;6916;51.504;7.416;2023-07-08T07:45:50;3.90;;;3.40;;
13687;SDS011;6916;51.504;7.416;2023-07-08T07:56:00;7.93;;;3.28;;
13687;SDS011;6916;51.504;7.416;2023-07-08T08:06:05;7.72;;;4.93;;
13687;SDS011;6916;51.504;7.416;2023-07-08T08:16:07;7.45;;;3.50;;
13687;SDS011;6916;51.504;7.416;2023-07-08T08:26:10;6.03;;;3.60;;
13687;SDS011;6916;51.504;7.416;2023-07-08T08:36:12;6.40;;;4.00;;
13687;SDS011;6916;51.504;7.416;2023-07-08T08:46:39;8.10;;;4.07;;
13687;SDS011;6916;51.504;7.416;2023-07-08T09:06:57;8.30;;;4.10;;
13687;SDS011;6916;51.504;7.416;2023-07-08T09:17:17;9.00;;;4.63;;
13687;SDS011;6916;51.504;7.416;2023-07-08T09:27:25;6.38;;;4.47;;
13687;SDS011;6916;51.504;7.416;2023-07-08T09:37:29;7.22;;;4.43;;
13687;SDS011;6916;51.504;7.416;2023-07-08T09:47:34;8.73;;;5.10;;
13687;SDS011;6916;51.504;7.416;2023-07-08T09:57:38;7.63;;;4.93;;
13687;SDS011;6916;51.504;7.416;2023-07-08T10:07:41;7.68;;;4.47;;
13687;SDS011;6916;51.504;7.416;2023-07-08T10:17:44;6.47;;;4.47;;
13687;SDS011;6916;51.504;7.416;2023-07-08T10:27:52;7.10;;;5.07;;
13687;SDS011;6916;51.504;7.416;2023-07-08T10:38:39;6.10;;;3.72;;
13687;SDS011;6916;51.504;7.416;2023-07-08T11:09:24;7.25;;;4.00;;
13687;SDS011;6916;51.504;7.416;2023-07-08T11:19:34;5.50;;;4.18;;
13687;SDS011;6916;51.504;7.416;2023-07-08T11:50:02;3.55;;;2.70;;
13687;SDS011;6916;51.504;7.416;2023-07-08T12:00:14;5.50;;;3.30;;
13687;SDS011;6916;51.504;7.416;2023-07-08T12:20:41;7.00;;;3.15;;
13687;SDS011;6916;51.504;7.416;2023-07-08T12:30:46;4.68;;;3.30;;
13687;SDS011;6916;51.504;7.416;2023-07-08T12:40:50;5.53;;;3.00;;
13687;SDS011;6916;51.504;7.416;2023-07-08T12:50:53;4.25;;;2.78;;
13687;SDS011;6916;51.504;7.416;2023-07-08T13:00:56;5.15;;;3.30;;
13687;SDS011;6916;51.504;7.416;2023-07-08T13:11:01;6.88;;;3.40;;
13687;SDS011;6916;51.504;7.416;2023-07-08T13:21:07;3.95;;;2.92;;
13687;SDS011;6916;51.504;7.416;2023-07-08T13:31:14;4.55;;;3.20;;
13687;SDS011;6916;51.504;7.416;2023-07-08T13:41:19;4.93;;;2.78;;
13687;SDS011;6916;51.504;7.416;2023-07-08T13:51:25;4.38;;;3.22;;
13687;SDS011;6916;51.504;7.416;2023-07-08T14:01:33;6.78;;;3.00;;
13687;SDS011;6916;51.504;7.416;2023-07-08T14:11:37;27.27;;;5.05;;
13687;SDS011;6916;51.504;7.416;2023-07-08T14:21:40;15.60;;;3.70;;
13687;SDS011;6916;51.504;7.416;2023-07-08T14:31:42;6.47;;;2.70;;
13687;SDS011;6916;51.504;7.416;2023-07-08T14:41:45;13.63;;;3.58;;
13687;SDS011;6916;51.504;7.416;2023-07-08T14:51:49;3.65;;;2.78;;
13687;SDS011;6916;51.504;7.416;2023-07-08T15:01:52;4.60;;;2.90;;
13687;SDS011;6916;51.504;7.416;2023-07-08T15:11:56;6.15;;;3.25;;
13687;SDS011;6916;51.504;7.416;2023-07-08T15:21:59;17.60;;;3.95;;
13687;SDS011;6916;51.504;7.416;2023-07-08T15:32:03;5.70;;;3.75;;
13687;SDS011;6916;51.504;7.416;2023-07-08T15:42:23;9.98;;;3.92;;
13687;SDS011;6916;51.504;7.416;2023-07-08T15:52:25;5.32;;;3.88;;
13687;SDS011;6916;51.504;7.416;2023-07-08T16:02:31;23.77;;;4.78;;
13687;SDS011;6916;51.504;7.416;2023-07-08T16:12:34;15.63;;;5.10;;
13687;SDS011;6916;51.504;7.416;2023-07-08T16:22:37;5.22;;;3.88;;
13687;SDS011;6916;51.504;7.416;2023-07-08T16:32:42;5.88;;;4.05;;
13687;SDS011;6916;51.504;7.416;2023-07-08T16:42:45;7.82;;;4.18;;
13687;SDS011;6916;51.504;7.416;2023-07-08T16:52:49;6.30;;;3.83;;
13687;SDS011;6916;51.504;7.416;2023-07-08T17:02:51;7.38;;;4.88;;
13687;SDS011;6916;51.504;7.416;2023-07-08T17:12:54;6.97;;;4.47;;
13687;SDS011;6916;51.504;7.416;2023-07-08T17:22:56;6.65;;;5.30;;
13687;SDS011;6916;51.504;7.416;2023-07-08T17:43:27;7.47;;;5.22;;
13687;SDS011;6916;51.504;7.416;2023-07-08T17:53:29;8.02;;;5.18;;
13687;SDS011;6916;51.504;7.416;2023-07-08T18:03:32;14.40;;;5.63;;
13687;SDS011;6916;51.504;7.416;2023-07-08T18:13:35;5.80;;;4.90;;
13687;SDS011;6916;51.504;7.416;2023-07-08T18:23:40;7.90;;;5.30;;
13687;SDS011;6916;51.504;7.416;2023-07-08T18:33:45;6.57;;;4.50;;
13687;SDS011;6916;51.504;7.416;2023-07-08T18:43:48;6.43;;;4.53;;
13687;SDS011;6916;51.504;7.416;2023-07-08T18:53:51;7.35;;;4.65;;
13687;SDS011;6916;51.504;7.416;2023-07-08T19:03:54;7.15;;;5.30;;
13687;SDS011;6916;51.504;7.416;2023-07-08T19:13:59;11.32;;;5.50;;
13687;SDS011;6916;51.504;7.416;2023-07-08T19:24:02;9.48;;;5.88;;
13687;SDS011;6916;51.504;7.416;2023-07-08T19:34:05;6.80;;;5.43;;
13687;SDS011;6916;51.504;7.416;2023-07-08T19:44:08;10.95;;;6.20;;
13687;SDS011;6916;51.504;7.416;2023-07-08T19:54:24;7.78;;;4.82;;
13687;SDS011;6916;51.504;7.416;2023-07-08T20:04:27;8.13;;;4.68;;
13687;SDS011;6916;51.504;7.416;2023-07-08T20:14:30;9.43;;;4.43;;
13687;SDS011;6916;51.504;7.416;2023-07-08T20:24:32;8.02;;;4.95;;
13687;SDS011;6916;51.504;7.416;2023-07-08T20:34:35;11.77;;;5.43;;
13687;SDS011;6916;51.504;7.416;2023-07-08T20:44:37;9.05;;;4.57;;
13687;SDS011;6916;51.504;7.416;2023-07-08T20:54:43;8.20;;;5.25;;
13687;SDS011;6916;51.504;7.416;2023-07-08T21:04:49;11.77;;;4.10;;
13687;SDS011;6916;51.504;7.416;2023-07-08T21:14:55;8.70;;;5.80;;
13687;SDS011;6916;51.504;7.416;2023-07-08T21:24:58;7.88;;;4.10;;
13687;SDS011;6916;51.504;7.416;2023-07-08T21:35:00;5.03;;;4.05;;
13687;SDS011;6916;51.504;7.416;2023-07-08T21:45:08;6.78;;;4.38;;
13687;SDS011;6916;51.504;7.416;2023-07-08T21:55:24;6.88;;;3.72;;
13687;SDS011;6916;51.504;7.416;2023-07-08T22:05:26;7.05;;;3.92;;
13687;SDS011;6916;51.504;7.416;2023-07-08T22:15:29;6.18;;;4.50;;
13687;SDS011;6916;51.504;7.416;2023-07-08T22:25:32;5.45;;;4.00;;
13687;SDS011;6916;51.504;7.416;2023-07-08T22:35:34;6.95;;;3.28;;
13687;SDS011;6916;51.504;7.416;2023-07-08T22:45:37;4.80;;;3.35;;
13687;SDS011;6916;51.504;7.416;2023-07-08T22:55:40;4.78;;;3.67;;
13687;SDS011;6916;51.504;7.416;2023-07-08T23:05:43;4.22;;;3.50;;
13687;SDS011;6916;51.504;7.416;2023-07-08T23:15:48;6.00;;;3.70;;
13687;SDS011;6916;51.504;7.416;2023-07-08T23:25:51;5.63;;;3.50;;
13687;SDS011;6916;51.504;7.416;2023-07-08T23:35:54;5.10;;;3.60;;
13687;SDS011;6916;51.504;7.416;2023-07-08T23:45:56;7.13;;;3.97;;
13687;SDS011;6916;51.504;7.416;2023-07-08T23:55:59;6.18;;;4.40;;
